Latest Weather Observations for Redcliffe

IDQ60901

Issued at 11:01 am EST Sunday 26 February 2017 (issued every 10 minutes, with the page automatically refreshed every 10 minutes)

About weather observations | Map of Brisbane area stations | Latest observations for Brisbane area | Other Formats
Station Details ID: 040958 Name: REDCLIFFE Lat: -27.22 Lon: 153.09 Height: 12.6 m
Data from the previous 72 hours. | See also: Recent months at Redcliffe
Date/Time
EST
Temp
°C
App
Temp
°C
Dew
Point
°C
Rel
Hum
%
Delta-T
°C
Wind Press
QNH
hPa
Press
MSL
hPa
Rain since
9am
mm
Dir  Spd
km/h
Gust
km/h
Spd
kts
Gust
kts
26/10:30am 26.9 22.9 17.7 57 5.8 SSE 35 43 19 23 1016.4 1016.3 0.0
26/10:00am 27.1 23.2 17.8 56 5.9 SSE 35 43 19 23 1016.2 1016.1 0.0
26/09:30am 26.8 23.7 18.4 60 5.3 SSE 32 37 17 20 1016.3 1016.2 0.0
26/09:00am 26.8 23.7 18.4 60 5.3 SSE 32 35 17 19 1016.0 1015.9 0.0
26/08:30am 25.0 21.4 17.2 62 4.8 SSE 32 35 17 19 1015.9 1015.8 0.0
26/08:00am 25.5 22.2 16.9 59 5.3 S 30 35 16 19 1015.8 1015.7 0.0
26/07:30am 24.7 21.2 16.4 60 5.1 S 30 35 16 19 1015.3 1015.2 0.0
26/07:00am 23.5 22.1 17.0 67 4.0 SSW 20 26 11 14 1015.5 1015.4 0.0
26/06:30am 22.1 21.0 16.4 70 3.5 SSW 17 22 9 12 1015.1 1015.0 0.0
26/06:00am 21.6 20.0 15.9 70 3.4 SSW 19 26 10 14 1014.7 1014.6 0.0
26/05:30am 21.6 20.7 15.9 70 3.4 SSW 15 20 8 11 1014.4 1014.3 0.0
26/05:00am 21.6 20.3 15.7 69 3.5 SSW 17 26 9 14 1014.1 1014.0 0.0
26/04:30am 21.8 20.4 15.6 68 3.7 S 17 22 9 12 1013.8 1013.7 0.0
26/04:00am 22.1 20.6 15.2 65 4.1 SSW 17 26 9 14 1013.7 1013.6 0.0
26/03:30am 23.0 20.9 16.1 65 4.2 S 22 30 12 16 1013.6 1013.5 0.0
26/03:00am 23.1 20.2 16.2 65 4.2 S 26 41 14 22 1013.8 1013.7 0.0
26/02:30am 23.4 19.5 16.4 64 4.3 S 32 39 17 21 1013.7 1013.6 0.0
26/02:00am 23.4 19.5 16.4 64 4.3 S 32 39 17 21 1013.7 1013.6 0.0
26/01:30am 23.4 19.5 16.4 64 4.3 S 32 41 17 22 1014.0 1013.9 0.0
26/01:00am 23.5 19.9 16.3 64 4.4 S 30 37 16 20 1014.5 1014.4 0.0
26/12:30am 23.5 19.6 16.5 65 4.3 S 32 37 17 20 1015.0 1014.9 0.0
26/12:00am 23.6 19.5 16.4 64 4.4 S 33 37 18 20 1015.3 1015.2 0.0
 
Date/Time
EST
Temp
°C
App
Temp
°C
Dew
Point
°C
Rel
Hum
%
Delta-T
°C
Wind Press
QNH
hPa
Press
MSL
hPa
Rain since
9am
mm
Dir  Spd
km/h
Gust
km/h
Spd
kts
Gust
kts
25/11:30pm 23.7 19.7 16.2 63 4.6 S 32 37 17 20 1015.6 1015.5 0.0
25/11:00pm 23.8 19.8 16.1 62 4.7 S 32 37 17 20 1015.9 1015.8 0.0
25/10:30pm 24.0 20.0 16.3 62 4.7 S 32 41 17 22 1016.3 1016.2 0.0
25/10:00pm 24.4 20.0 16.6 61 4.8 SSE 35 43 19 23 1016.2 1016.1 0.0
25/09:30pm 24.7 19.1 16.4 60 5.1 SSE 41 50 22 27 1015.9 1015.8 0.0
25/09:00pm 24.8 18.8 17.0 62 4.8 SSE 44 52 24 28 1015.7 1015.6 0.0
25/08:30pm 25.2 19.3 17.1 60 5.0 SSE 44 52 24 28 1015.7 1015.6 0.0
25/08:00pm 25.4 19.6 17.3 61 5.0 SE 44 54 24 29 1015.3 1015.2 0.0
25/07:30pm 25.6 20.0 17.5 61 5.1 SE 43 50 23 27 1015.1 1015.0 0.0
25/07:00pm 25.8 21.6 17.2 59 5.4 SE 35 43 19 23 1014.7 1014.6 0.0
25/06:30pm 26.1 21.5 16.1 54 6.1 SE 35 41 19 22 1014.4 1014.3 0.0
25/06:00pm 26.2 21.8 16.7 56 5.9 ESE 35 41 19 22 1014.1 1014.0 0.0
25/05:30pm 26.8 22.8 16.7 54 6.3 SE 33 41 18 22 1014.0 1013.9 0.0
25/05:00pm 27.1 23.4 17.0 54 6.3 SE 32 37 17 20 1013.6 1013.5 0.0
25/04:30pm 27.1 23.3 17.3 55 6.1 SE 33 37 18 20 1013.5 1013.4 0.0
25/04:00pm 27.8 24.6 18.2 56 6.1 SE 32 39 17 21 1013.5 1013.4 0.0
25/03:30pm 28.2 25.4 17.4 52 6.8 ESE 28 33 15 18 1013.3 1013.2 0.0
25/03:00pm 27.9 24.3 15.2 46 7.7 ESE 28 30 15 16 1013.4 1013.3 0.0
25/02:30pm 28.8 25.6 15.3 43 8.3 ESE 26 33 14 18 1013.7 1013.6 0.0
25/02:00pm 29.2 25.4 14.6 41 8.8 SE 28 32 15 17 1014.1 1014.0 0.0
25/01:30pm 28.7 24.6 14.9 43 8.4 SE 30 33 16 18 1014.5 1014.4 0.0
25/01:00pm 28.3 23.8 14.9 44 8.1 SE 32 35 17 19 1014.8 1014.7 0.0
25/12:30pm 28.1 23.8 15.4 46 7.8 SE 32 35 17 19 1015.2 1015.1 0.0
25/12:00pm 27.7 23.9 15.7 48 7.3 SE 30 35 16 19 1015.5 1015.4 0.0
25/11:30am 28.1 24.8 16.1 48 7.4 SE 28 32 15 17 1015.7 1015.6 0.0
25/11:00am 27.5 24.1 13.8 43 8.1 SE 24 30 13 16 1016.1 1016.0 0.0
25/10:30am 28.0 25.8 16.0 48 7.4 SSE 22 26 12 14 1016.5 1016.4 0.0
25/10:00am 27.2 24.6 14.9 47 7.4 S 22 28 12 15 1016.9 1016.8 0.0
25/09:30am 27.3 24.1 15.3 48 7.3 SSE 26 30 14 16 1016.9 1016.8 0.0
25/09:00am 27.3 24.2 15.7 49 7.1 S 26 30 14 16 1016.9 1016.8 0.0
25/08:30am 26.5 24.1 15.5 50 6.7 S 22 30 12 16 1017.0 1016.9 0.0
25/08:00am 25.5 22.8 15.5 54 6.1 S 24 30 13 16 1017.0 1016.9 0.0
25/07:30am 24.9 22.4 16.1 58 5.4 S 24 30 13 16 1016.8 1016.7 0.0
25/07:00am 23.7 22.5 16.2 63 4.6 SSW 17 26 9 14 1016.7 1016.6 0.0
25/06:30am 22.3 20.9 16.6 70 3.5 SSW 19 26 10 14 1016.3 1016.2 0.0
25/06:00am 21.3 19.9 16.5 74 2.9 SSW 19 26 10 14 1016.2 1016.1 0.0
25/05:30am 22.0 19.3 16.5 71 3.3 S 26 32 14 17 1016.1 1016.0 0.0
25/05:00am 22.3 20.0 16.6 70 3.5 S 24 30 13 16 1015.9 1015.8 0.0
25/04:30am 22.5 20.3 17.0 71 3.4 S 24 32 13 17 1015.7 1015.6 0.0
25/04:00am 22.6 20.0 16.9 70 3.5 S 26 30 14 16 1015.6 1015.5 0.0
25/03:30am 22.8 20.3 17.0 70 3.6 S 26 30 14 16 1015.2 1015.1 0.0
25/03:00am 22.8 20.3 17.0 70 3.6 S 26 30 14 16 1015.1 1015.0 0.0
25/02:30am 23.1 22.0 17.3 70 3.6 S 19 28 10 15 1015.3 1015.2 0.0
25/02:00am 24.4 22.8 16.6 61 4.8 SSE 20 28 11 15 1015.3 1015.2 0.0
25/01:30am 24.4 22.8 16.4 61 4.9 SE 20 28 11 15 1015.3 1015.2 0.0
25/01:00am 24.6 22.9 16.3 60 5.1 SE 20 26 11 14 1015.5 1015.4 0.0
25/12:30am 24.8 22.7 16.2 58 5.3 SE 22 28 12 15 1015.8 1015.7 0.0
25/12:00am 24.8 23.3 16.2 58 5.2 SE 19 24 10 13 1015.9 1015.8 0.0
 
Date/Time
EST
Temp
°C
App
Temp
°C
Dew
Point
°C
Rel
Hum
%
Delta-T
°C
Wind Press
QNH
hPa
Press
MSL
hPa
Rain since
9am
mm
Dir  Spd
km/h
Gust
km/h
Spd
kts
Gust
kts
24/11:30pm 24.6 22.8 16.1 59 5.2 SE 20 26 11 14 1016.2 1016.1 0.0
24/11:00pm 24.8 23.3 16.8 61 4.9 ESE 20 28 11 15 1016.5 1016.4 0.0
24/10:30pm 25.1 23.8 17.3 62 4.9 SE 20 28 11 15 1016.7 1016.6 0.0
24/10:00pm 25.2 23.8 16.9 60 5.1 SE 20 26 11 14 1016.9 1016.8 0.0
24/09:30pm 25.4 24.1 17.3 61 5.0 SE 20 26 11 14 1017.0 1016.9 0.0
24/09:00pm 25.3 23.6 17.2 61 5.0 ESE 22 28 12 15 1017.2 1017.1 0.0
24/08:30pm 25.3 24.1 17.5 62 4.9 ESE 20 26 11 14 1017.3 1017.2 0.0
24/08:00pm 25.5 23.9 17.4 61 5.0 ESE 22 28 12 15 1017.1 1017.0 0.0
24/07:30pm 25.5 24.0 17.7 62 4.9 ESE 22 28 12 15 1016.9 1016.8 0.0
24/07:00pm 25.7 24.3 17.9 62 4.9 ESE 22 30 12 16 1016.7 1016.6 0.0
24/06:30pm 25.7 23.9 17.9 62 4.9 ESE 24 30 13 16 1016.5 1016.4 0.0
24/06:00pm 26.0 24.0 17.4 59 5.4 ESE 24 30 13 16 1016.2 1016.1 0.0
24/05:30pm 26.5 23.8 17.6 58 5.6 E 28 32 15 17 1015.9 1015.8 0.0
24/05:00pm 26.7 24.2 17.2 56 5.9 E 26 30 14 16 1015.7 1015.6 0.0
24/04:30pm 27.2 24.3 17.1 54 6.3 E 28 33 15 18 1015.8 1015.7 0.0
24/04:00pm 27.2 24.8 17.4 55 6.1 E 26 30 14 16 1015.7 1015.6 0.0
24/03:30pm 27.4 24.5 17.0 53 6.5 E 28 32 15 17 1015.7 1015.6 0.0
24/03:00pm 28.1 26.3 17.0 51 6.9 ESE 22 28 12 15 1015.7 1015.6 0.0
24/02:30pm 27.7 25.1 16.9 51 6.7 ESE 26 30 14 16 1016.1 1016.0 0.0
24/02:00pm 28.4 26.0 17.3 51 7.0 ESE 26 28 14 15 1016.3 1016.2 0.0
24/01:30pm 28.2 25.3 17.1 51 7.0 ESE 28 32 15 17 1016.5 1016.4 0.0
24/01:00pm 28.4 25.9 17.0 50 7.1 SE 26 28 14 15 1016.8 1016.7 0.0
24/12:30pm 27.8 25.5 16.7 50 6.9 SSE 24 28 13 15 1017.2 1017.1 0.0
24/12:00pm 28.4 26.1 16.7 49 7.3 SSE 24 28 13 15 1017.5 1017.4 0.0
24/11:30am 28.4 26.1 16.7 49 7.3 SSE 24 26 13 14 1017.9 1017.8 0.0
24/11:00am 28.2 26.1 17.1 51 7.0 SSE 24 28 13 15 1018.2 1018.1 0.0
24/10:30am 27.6 25.4 16.9 52 6.7 SSE 24 30 13 16 1018.4 1018.3 0.0
24/10:00am 27.6 26.2 16.6 51 6.8 SSE 19 24 10 13 1018.7 1018.6 0.0
24/09:30am 27.3 25.6 15.7 49 7.1 S 19 24 10 13 1018.9 1018.8 0.0
24/09:00am 26.6 24.7 15.3 50 6.8 S 19 24 10 13 1018.8 1018.7 0.0
24/08:30am 26.9 25.3 17.4 56 6.0 S 22 26 12 14 1018.7 1018.6 0.0
24/08:00am 25.1 22.9 16.8 60 5.1 S 24 32 13 17 1018.7 1018.6 0.0
24/07:30am 24.2 22.5 16.2 61 4.9 S 20 30 11 16 1018.4 1018.3 0.0
24/07:00am 23.4 22.4 16.7 66 4.1 SSW 17 26 9 14 1018.1 1018.0 0.0
24/06:30am 21.9 21.0 16.8 73 3.1 SSW 17 20 9 11 1018.0 1017.9 0.0
24/06:00am 21.0 20.4 16.6 76 2.7 SSW 15 20 8 11 1017.5 1017.4 0.0
24/05:30am 21.3 20.0 16.9 76 2.7 S 19 26 10 14 1017.2 1017.1 0.0
24/05:00am 20.9 20.8 16.9 78 2.4 SSW 13 17 7 9 1016.9 1016.8 0.0
24/04:30am 21.2 19.7 16.8 76 2.7 S 20 26 11 14 1016.9 1016.8 0.0
24/04:00am 21.4 19.5 16.8 75 2.8 S 22 28 12 15 1017.0 1016.9 0.0
24/03:30am 21.6 20.8 17.0 75 2.8 S 17 26 9 14 1017.0 1016.9 0.0
24/03:00am 21.8 21.7 17.0 74 2.9 SSW 13 19 7 10 1017.1 1017.0 0.0
24/02:30am 22.2 21.7 16.9 72 3.2 S 15 20 8 11 1017.1 1017.0 0.0
24/02:00am 22.3 21.4 16.8 71 3.4 S 17 24 9 13 1017.3 1017.2 0.0
24/01:30am 23.1 22.0 17.3 70 3.6 S 19 26 10 14 1017.5 1017.4 0.0
24/01:00am 23.6 22.3 17.3 67 3.9 SSE 20 24 11 13 1017.6 1017.5 0.0
24/12:30am 23.8 21.7 17.1 66 4.1 SSE 24 26 13 14 1017.9 1017.8 0.0
24/12:00am 24.5 21.8 16.7 61 4.8 S 26 32 14 17 1018.1 1018.0 0.0
 
Date/Time
EST
Temp
°C
App
Temp
°C
Dew
Point
°C
Rel
Hum
%
Delta-T
°C
Wind Press
QNH
hPa
Press
MSL
hPa
Rain since
9am
mm
Dir  Spd
km/h
Gust
km/h
Spd
kts
Gust
kts
23/11:30pm 25.0 21.4 16.2 58 5.4 SE 30 33 16 18 1018.3 1018.2 0.0
23/11:00pm 25.2 21.0 15.8 56 5.7 SE 32 37 17 20 1018.3 1018.2 0.0
23/10:30pm 25.2 21.9 16.9 60 5.1 SE 30 35 16 19 1018.7 1018.6 0.0
23/10:00pm 25.4 22.5 17.1 60 5.1 SE 28 33 15 18 1018.8 1018.7 0.0
23/09:30pm 25.3 22.5 17.2 61 5.0 SE 28 33 15 18 1018.8 1018.7 0.0
23/09:00pm 25.4 22.5 17.1 60 5.1 SE 28 33 15 18 1018.9 1018.8 0.0
23/08:30pm 25.5 22.7 17.4 61 5.1 SE 28 33 15 18 1018.8 1018.7 0.0
23/08:00pm 25.5 23.1 18.2 64 4.6 SE 28 35 15 19 1018.6 1018.5 0.0
23/07:30pm 25.5 22.9 17.9 63 4.8 SE 28 35 15 19 1018.4 1018.3 0.0
23/07:00pm 25.9 23.5 17.3 59 5.4 SE 26 32 14 17 1018.2 1018.1 0.0
23/06:30pm 25.9 23.3 17.8 61 5.1 ESE 28 32 15 17 1017.9 1017.8 0.0
23/06:00pm 25.8 22.8 17.7 61 5.1 ESE 30 35 16 19 1017.6 1017.5 0.0
23/05:30pm 26.7 23.9 18.3 60 5.3 ESE 30 35 16 19 1017.4 1017.3 0.0
23/05:00pm 26.8 24.2 17.8 57 5.7 SE 28 33 15 18 1017.2 1017.1 0.0
23/04:30pm 27.0 24.4 17.8 57 5.8 ESE 28 35 15 19 1017.0 1016.9 0.0
23/04:00pm 27.2 24.2 17.7 56 6.0 ESE 30 33 16 18 1017.0 1016.9 0.0
23/03:30pm 26.9 23.8 16.5 53 6.4 ESE 28 33 15 18 1017.0 1016.9 0.0
23/03:00pm 27.1 24.2 17.0 54 6.3 SE 28 33 15 18 1017.0 1016.9 0.0
23/02:30pm 27.2 24.5 16.5 52 6.6 ESE 26 32 14 17 1017.4 1017.3 0.0
23/02:00pm 28.5 25.6 17.1 50 7.1 SSE 28 32 15 17 1017.7 1017.6 0.0
23/01:30pm 28.0 25.1 16.0 48 7.4 SE 26 30 14 16 1017.8 1017.7 0.0
23/01:00pm 27.3 24.2 15.7 49 7.1 SE 26 30 14 16 1017.9 1017.8 0.0
23/12:30pm 28.1 25.2 16.1 48 7.4 SSE 26 32 14 17 1018.2 1018.1 0.0
23/12:00pm 27.7 24.4 15.0 45 7.7 SE 26 30 14 16 1018.5 1018.4 0.0
23/11:30am 27.9 24.4 14.5 44 8.1 SSE 26 30 14 16 1018.8 1018.7 0.0

Latest Capital City Observations: Canberra | Sydney | Melbourne | Brisbane | Adelaide | Perth | Hobart | Darwin

Other Formats:

Comma delimited format used in spreadsheet applications
http://www.bom.gov.au/fwo/IDQ60901/IDQ60901.95591.axf

JavaScript Object Notation format (JSON) in row-major order
http://www.bom.gov.au/fwo/IDQ60901/IDQ60901.95591.json